Time;durP1;ratioP1;P1;durP2;ratioP2;P2;SDS_P1;SDS_P2;PMS_P1;PMS_P2;Temp;Humidity;BMP_temperature;BMP_pressure;BME280_temperature;BME280_humidity;BME280_pressure;Samples;Min_cycle;Max_cycle;Signal;HPM_P1;HPM_P2
2022/09/01 00:00:47;;;;;;;;;;;;;;;18.45;65.54;100067.56;1082901;54;19996;-79
2022/09/01 00:01:52;;;;;;;;;;;;;;;18.40;65.98;100068.13;1083796;54;19946;-79
2022/09/01 00:02:55;;;;;;;;;;;;;;;18.35;66.10;100068.72;1085377;54;19946;-79
2022/09/01 00:04:03;;;;;;;;;;;;;;;18.39;65.89;100074.59;1085184;54;19978;-79
2022/09/01 00:05:06;;;;;;;;;;;;;;;18.38;66.04;100072.91;1085492;54;19989;-78
2022/09/01 00:06:10;;;;;;;;;;;;;;;18.37;65.99;100073.94;1085984;46;19973;-78
2022/09/01 00:07:12;;;;;;;;;;;;;;;18.35;65.91;100078.69;1084922;54;19947;-79
2022/09/01 00:08:16;;;;;;;;;;;;;;;18.34;66.04;100072.47;1084976;54;20085;-78
2022/09/01 00:09:18;;;;;;;;;;;;;;;18.37;66.03;100069.34;1087088;39;20326;-79
2022/09/01 00:10:22;;;;;;;;;;;;;;;18.36;66.00;100074.97;1084979;54;19953;-79
2022/09/01 00:11:25;;;;;;;;;;;;;;;18.42;65.43;100076.88;1085548;54;19958;-78
2022/09/01 00:12:29;;;;;;;;;;;;;;;18.46;65.32;100070.06;1085232;54;20061;-79
2022/09/01 00:13:32;;;;;;;;;;;;;;;18.49;64.92;100069.66;1085461;54;19947;-79
2022/09/01 00:14:38;;;;;;;;;;;;;;;18.48;65.54;100076.13;1085698;54;19950;-78
2022/09/01 00:15:39;;;;;;;;;;;;;;;18.43;65.72;100075.84;1086088;54;19953;-81
2022/09/01 00:16:42;;;;;;;;;;;;;;;18.43;65.50;100073.13;1085879;54;20094;-79
2022/09/01 00:17:44;;;;;;;;;;;;;;;18.46;65.23;100080.88;1085506;54;19942;-78
2022/09/01 00:18:51;;;;;;;;;;;;;;;18.46;65.32;100080.88;1085481;54;19981;-81
2022/09/01 00:19:52;;;;;;;;;;;;;;;18.38;66.20;100073.72;1085308;54;19950;-80
2022/09/01 00:20:58;;;;;;;;;;;;;;;18.38;66.20;100068.31;1085853;54;19946;-80
2022/09/01 00:21:59;;;;;;;;;;;;;;;18.32;66.53;100081.81;1087843;39;20490;-80
2022/09/01 00:23:03;;;;;;;;;;;;;;;18.31;66.46;100074.72;1085693;54;20526;-80
2022/09/01 00:24:04;;;;;;;;;;;;;;;18.27;66.67;100076.13;1085844;54;20451;-80
2022/09/01 00:25:09;;;;;;;;;;;;;;;18.27;66.66;100073.44;1086196;54;19950;-78
2022/09/01 00:26:10;;;;;;;;;;;;;;;18.33;65.98;100075.34;1085860;54;19969;-79
2022/09/01 00:27:14;;;;;;;;;;;;;;;18.26;66.83;100071.75;1085933;54;19950;-79
2022/09/01 00:28:15;;;;;;;;;;;;;;;18.21;67.28;100073.19;1085989;39;20326;-79
2022/09/01 00:29:19;;;;;;;;;;;;;;;18.16;67.26;100067.50;1085465;54;19947;-78
2022/09/01 00:30:20;;;;;;;;;;;;;;;18.17;67.48;100066.47;1085758;54;20463;-80
2022/09/01 00:31:24;;;;;;;;;;;;;;;18.19;67.13;100067.13;1085999;46;19970;-78
2022/09/01 00:32:25;;;;;;;;;;;;;;;18.19;67.20;100075.25;1086196;54;20538;-77
2022/09/01 00:33:29;;;;;;;;;;;;;;;18.21;67.19;100065.06;1086219;54;19947;-79
2022/09/01 00:34:33;;;;;;;;;;;;;;;18.21;67.12;100067.78;1085542;54;20002;-77
2022/09/01 00:35:37;;;;;;;;;;;;;;;18.19;67.17;100064.41;1085370;54;19946;-78
2022/09/01 00:36:38;;;;;;;;;;;;;;;18.14;67.75;100064.16;1085183;54;19951;-79
2022/09/01 00:37:41;;;;;;;;;;;;;;;18.12;67.87;100063.53;1086083;54;19947;-80
2022/09/01 00:38:42;;;;;;;;;;;;;;;18.11;67.70;100059.16;1085061;54;19946;-78
2022/09/01 00:39:46;;;;;;;;;;;;;;;17.99;68.60;100069.66;1085877;54;19947;-78
2022/09/01 00:40:48;;;;;;;;;;;;;;;18.02;68.31;100073.84;1085946;54;19950;-78
2022/09/01 00:41:52;;;;;;;;;;;;;;;17.99;68.65;100064.25;1087012;54;19947;-80
2022/09/01 00:42:53;;;;;;;;;;;;;;;17.96;68.90;100071.84;1085996;54;19943;-78
2022/09/01 00:43:58;;;;;;;;;;;;;;;17.93;68.97;100067.66;1086110;54;19938;-78
2022/09/01 00:44:59;;;;;;;;;;;;;;;17.98;68.54;100067.13;1087173;54;19938;-79
2022/09/01 00:46:03;;;;;;;;;;;;;;;18.01;68.38;100064.88;1086388;54;19950;-78
2022/09/01 00:47:05;;;;;;;;;;;;;;;18.01;68.52;100066.75;1086653;54;19958;-80
2022/09/01 00:48:09;;;;;;;;;;;;;;;18.02;68.45;100068.44;1086621;39;20361;-78
2022/09/01 00:49:11;;;;;;;;;;;;;;;18.05;68.44;100062.59;1086239;54;19950;-80
2022/09/01 00:50:19;;;;;;;;;;;;;;;18.10;68.00;100060.19;1085807;54;19951;-78
2022/09/01 00:51:21;;;;;;;;;;;;;;;18.08;68.16;100070.34;1085976;54;19950;-77
2022/09/01 00:52:31;;;;;;;;;;;;;;;18.07;68.31;100068.66;1085505;54;20037;-80
2022/09/01 00:53:32;;;;;;;;;;;;;;;18.08;68.52;100070.34;1086172;54;19957;-80
2022/09/01 00:54:39;;;;;;;;;;;;;;;18.11;67.94;100069.97;1085730;54;20472;-80
2022/09/01 00:55:40;;;;;;;;;;;;;;;18.17;67.51;100068.38;1085607;54;19956;-79
2022/09/01 00:56:44;;;;;;;;;;;;;;;18.18;67.42;100068.16;1085667;54;19946;-78
2022/09/01 00:57:46;;;;;;;;;;;;;;;18.19;67.82;100059.00;1087093;39;20460;-79
2022/09/01 00:58:50;;;;;;;;;;;;;;;18.20;67.99;100059.84;1085833;54;19946;-79
2022/09/01 00:59:53;;;;;;;;;;;;;;;18.21;67.50;100069.63;1085757;54;19951;-79
2022/09/01 01:00:58;;;;;;;;;;;;;;;18.18;68.09;100065.44;1085994;54;19957;-77
2022/09/01 01:01:59;;;;;;;;;;;;;;;18.22;67.72;100060.47;1085651;54;19998;-79
2022/09/01 01:03:03;;;;;;;;;;;;;;;18.16;67.91;100064.81;1085806;54;20054;-79
2022/09/01 01:04:05;;;;;;;;;;;;;;;18.10;68.52;100057.47;1086108;46;19939;-80
2022/09/01 01:05:10;;;;;;;;;;;;;;;18.07;68.67;100065.97;1085365;54;19947;-79
2022/09/01 01:06:15;;;;;;;;;;;;;;;18.07;68.87;100064.13;1085688;54;19943;-77
2022/09/01 01:07:21;;;;;;;;;;;;;;;18.12;68.36;100063.53;1085254;54;19951;-78
2022/09/01 01:08:32;;;;;;;;;;;;;;;18.13;68.46;100061.66;1086235;54;19946;-80
2022/09/01 01:09:35;;;;;;;;;;;;;;;18.16;68.26;100066.69;1085562;54;20046;-78
2022/09/01 01:10:40;;;;;;;;;;;;;;;18.15;67.98;100057.72;1085837;54;20456;-80
2022/09/01 01:11:44;;;;;;;;;;;;;;;18.16;68.13;100064.81;1085600;54;20433;-78
2022/09/01 01:12:50;;;;;;;;;;;;;;;18.14;68.14;100064.16;1086235;39;20230;-80
2022/09/01 01:13:54;;;;;;;;;;;;;;;18.17;67.89;100066.47;1085727;54;19947;-79
2022/09/01 01:14:58;;;;;;;;;;;;;;;18.15;68.40;100063.13;1085603;54;19950;-78
2022/09/01 01:15:59;;;;;;;;;;;;;;;18.19;67.96;100063.56;1085763;54;19951;-78
2022/09/01 01:17:03;;;;;;;;;;;;;;;18.20;67.67;100070.66;1085572;47;20543;-79
2022/09/01 01:18:04;;;;;;;;;;;;;;;18.14;68.63;100066.84;1086670;46;19942;-78
2022/09/01 01:23:00;;;;;;;;;;;;;;;18.07;68.79;100055.16;1085753;54;20690;-78
2022/09/01 01:23:14;;;;;;;;;;;;;;;17.78;69.98;100070.44;1086243;54;19958;-77
2022/09/01 01:24:28;;;;;;;;;;;;;;;17.75;70.29;100062.72;1085605;54;19973;-78
2022/09/01 01:25:31;;;;;;;;;;;;;;;17.73;70.39;100068.28;1085538;54;19950;-78
2022/09/01 01:26:36;;;;;;;;;;;;;;;17.74;70.33;100058.34;1085437;54;19947;-78
2022/09/01 01:27:37;;;;;;;;;;;;;;;17.76;69.91;100053.56;1085462;54;19946;-79
2022/09/01 01:28:42;;;;;;;;;;;;;;;17.78;70.32;100057.75;1085528;54;19946;-80
2022/09/01 01:29:43;;;;;;;;;;;;;;;17.76;70.45;100057.09;1085163;54;19946;-77
2022/09/01 01:30:50;;;;;;;;;;;;;;;17.76;70.48;100053.56;1085398;54;19953;-78
2022/09/01 01:31:52;;;;;;;;;;;;;;;17.71;70.38;100059.53;1085449;54;19946;-78
2022/09/01 01:32:56;;;;;;;;;;;;;;;17.72;70.43;100057.69;1085654;54;19950;-78
2022/09/01 01:33:58;;;;;;;;;;;;;;;17.69;70.41;100047.25;1085460;54;19950;-78
2022/09/01 01:35:02;;;;;;;;;;;;;;;17.69;70.63;100053.50;1085312;54;19970;-78
2022/09/01 01:36:06;;;;;;;;;;;;;;;17.65;70.74;100057.59;1085899;39;20427;-78
2022/09/01 01:37:12;;;;;;;;;;;;;;;17.65;70.81;100062.19;1085734;46;19969;-79
2022/09/01 01:38:15;;;;;;;;;;;;;;;17.62;70.92;100056.13;1086488;31;20417;-79
2022/09/01 01:39:20;;;;;;;;;;;;;;;17.58;71.38;100049.41;1085125;54;19958;-79
2022/09/01 01:40:24;;;;;;;;;;;;;;;17.58;71.28;100046.72;1085529;54;20029;-78
2022/09/01 01:41:28;;;;;;;;;;;;;;;17.62;71.17;100053.44;1085500;54;19973;-80
2022/09/01 01:42:31;;;;;;;;;;;;;;;17.66;70.68;100053.06;1085806;54;19962;-79
2022/09/01 01:43:36;;;;;;;;;;;;;;;17.67;70.75;100047.44;1085578;54;19946;-78
2022/09/01 01:44:38;;;;;;;;;;;;;;;17.66;70.63;100045.78;1085443;39;20419;-79
2022/09/01 01:45:42;;;;;;;;;;;;;;;17.71;70.17;100050.59;1085120;46;19946;-78
2022/09/01 01:46:44;;;;;;;;;;;;;;;17.65;70.72;100052.19;1085019;54;20445;-79
2022/09/01 01:47:52;;;;;;;;;;;;;;;17.68;70.39;100053.69;1085917;54;19946;-79
2022/09/01 01:48:54;;;;;;;;;;;;;;;17.70;70.58;100057.88;1085333;54;19950;-79
2022/09/01 01:49:58;;;;;;;;;;;;;;;17.71;70.25;100056.00;1085928;54;19950;-78
2022/09/01 01:51:03;;;;;;;;;;;;;;;17.74;70.28;100059.16;1085547;54;19951;-78
2022/09/01 01:52:04;;;;;;;;;;;;;;;17.72;70.26;100057.69;1085208;54;19954;-78
2022/09/01 01:53:10;;;;;;;;;;;;;;;17.65;70.80;100057.59;1085468;54;19961;-78
2022/09/01 01:54:12;;;;;;;;;;;;;;;17.66;70.91;100058.47;1085168;54;19954;-79
2022/09/01 01:55:18;;;;;;;;;;;;;;;17.60;71.44;100065.47;1086000;54;20006;-78
2022/09/01 01:56:24;;;;;;;;;;;;;;;17.55;71.18;100057.06;1086440;39;20665;-78
2022/09/01 01:57:30;;;;;;;;;;;;;;;17.55;71.14;100063.34;1085926;54;19950;-78
2022/09/01 01:58:34;;;;;;;;;;;;;;;17.53;71.39;100059.97;1085970;54;19943;-78
2022/09/01 01:59:37;;;;;;;;;;;;;;;17.51;71.55;100056.63;1087361;39;20362;-80
2022/09/01 02:00:43;;;;;;;;;;;;;;;17.47;71.85;100055.34;1085690;54;19950;-79
2022/09/01 02:01:47;;;;;;;;;;;;;;;17.53;71.31;100062.69;1085552;54;19950;-78
2022/09/01 02:02:53;;;;;;;;;;;;;;;17.53;71.49;100054.56;1086975;39;20345;-80
2022/09/01 02:03:55;;;;;;;;;;;;;;;17.57;71.08;100061.25;1085552;54;20046;-81
2022/09/01 02:04:59;;;;;;;;;;;;;;;17.51;71.44;100062.03;1085444;54;19950;-78
2022/09/01 02:06:03;;;;;;;;;;;;;;;17.49;71.71;100055.16;1086204;54;19951;-79
2022/09/01 02:07:10;;;;;;;;;;;;;;;17.45;71.86;100057.38;1086048;54;19969;-79
2022/09/01 02:08:14;;;;;;;;;;;;;;;17.46;71.39;100057.19;1085445;47;19946;-77
2022/09/01 02:09:18;;;;;;;;;;;;;;;17.46;71.65;100059.06;1085418;54;19951;-78
2022/09/01 02:10:20;;;;;;;;;;;;;;;17.52;71.38;100063.69;1086004;54;19935;-79
2022/09/01 02:11:27;;;;;;;;;;;;;;;17.53;71.25;100056.41;1085660;54;19951;-78
2022/09/01 02:12:30;;;;;;;;;;;;;;;17.46;71.90;100057.19;1085895;47;19966;-79
2022/09/01 02:13:34;;;;;;;;;;;;;;;17.45;71.78;100058.22;1085664;54;19951;-77
2022/09/01 02:14:35;;;;;;;;;;;;;;;17.51;71.17;100061.19;1085275;54;19954;-79
2022/09/01 02:15:43;;;;;;;;;;;;;;;17.48;71.67;100057.00;1087310;39;20772;-78
2022/09/01 02:16:44;;;;;;;;;;;;;;;17.53;71.23;100062.69;1085873;54;19938;-80
2022/09/01 02:17:48;;;;;;;;;;;;;;;17.52;71.08;100054.78;1085713;54;19973;-79
2022/09/01 02:18:50;;;;;;;;;;;;;;;17.50;71.36;100060.34;1086367;39;20372;-79
2022/09/01 02:19:56;;;;;;;;;;;;;;;17.52;70.99;100054.78;1086066;39;20389;-78
2022/09/01 02:20:57;;;;;;;;;;;;;;;17.54;71.00;100056.25;1085480;54;19947;-78
2022/09/01 02:22:01;;;;;;;;;;;;;;;17.59;70.74;100055.69;1085423;54;19949;-78
2022/09/01 02:23:08;;;;;;;;;;;;;;;17.60;70.88;100060.88;1086212;39;20344;-79
2022/09/01 02:24:12;;;;;;;;;;;;;;;17.62;70.41;100058.84;1086034;54;19950;-79
2022/09/01 02:25:15;;;;;;;;;;;;;;;17.66;70.49;100058.47;1086106;54;19946;-80
2022/09/01 02:26:22;;;;;;;;;;;;;;;17.68;70.49;100056.38;1085732;54;19953;-78
2022/09/01 02:27:28;;;;;;;;;;;;;;;17.66;70.40;100053.88;1085742;54;20049;-79
2022/09/01 02:28:33;;;;;;;;;;;;;;;17.66;70.31;100058.47;1085969;54;19952;-78
2022/09/01 02:29:37;;;;;;;;;;;;;;;17.62;70.50;100053.44;1086169;54;20656;-80
2022/09/01 02:30:40;;;;;;;;;;;;;;;17.67;70.19;100060.09;1085777;54;19947;-79
2022/09/01 02:31:44;;;;;;;;;;;;;;;17.67;70.48;100057.41;1085725;54;19951;-78
2022/09/01 02:32:46;;;;;;;;;;;;;;;17.64;70.62;100060.50;1086471;39;20749;-78
2022/09/01 02:33:49;;;;;;;;;;;;;;;17.65;70.47;100052.19;1086132;54;19950;-78
2022/09/01 02:34:52;;;;;;;;;;;;;;;17.65;70.26;100057.59;1084996;54;19947;-80
2022/09/01 02:35:58;;;;;;;;;;;;;;;17.68;70.06;100059.09;1085616;54;19950;-80
2022/09/01 02:37:01;;;;;;;;;;;;;;;17.70;70.43;100059.75;1086517;39;20322;-79
2022/09/01 02:38:03;;;;;;;;;;;;;;;17.66;70.54;100061.16;1087838;39;20364;-79
2022/09/01 02:39:07;;;;;;;;;;;;;;;17.62;70.57;100064.25;1086143;54;19961;-79
2022/09/01 02:40:09;;;;;;;;;;;;;;;17.62;70.78;100064.25;1086184;54;19947;-77
2022/09/01 02:41:13;;;;;;;;;;;;;;;17.60;70.83;100060.06;1087374;54;19951;-79
2022/09/01 02:42:15;;;;;;;;;;;;;;;17.61;70.70;100059.84;1087309;54;19939;-79
2022/09/01 02:43:21;;;;;;;;;;;;;;;17.58;70.67;100060.22;1086516;54;19946;-78
2022/09/01 02:44:22;;;;;;;;;;;;;;;17.59;70.56;100059.19;1085788;54;20701;-79
2022/09/01 02:45:28;;;;;;;;;;;;;;;17.61;70.30;100056.34;1086440;54;19957;-78
2022/09/01 02:46:29;;;;;;;;;;;;;;;17.64;70.31;100063.22;1086859;46;19946;-79
2022/09/01 02:47:33;;;;;;;;;;;;;;;17.65;70.34;100059.50;1086387;54;19950;-81
2022/09/01 02:48:36;;;;;;;;;;;;;;;17.68;70.08;100057.22;1086516;54;19947;-79
2022/09/01 02:49:41;;;;;;;;;;;;;;;17.67;70.14;100060.09;1085859;54;19961;-80
2022/09/01 02:50:43;;;;;;;;;;;;;;;17.68;70.11;100053.69;1085896;54;19946;-78
2022/09/01 02:51:48;;;;;;;;;;;;;;;17.71;70.04;100062.25;1085653;54;19957;-79
2022/09/01 02:52:51;;;;;;;;;;;;;;;17.68;69.87;100056.38;1085981;54;19951;-80
2022/09/01 02:53:54;;;;;;;;;;;;;;;17.68;69.93;100061.78;1086203;54;19950;-78
2022/09/01 02:54:56;;;;;;;;;;;;;;;17.69;69.74;100058.06;1085944;54;19942;-79
2022/09/01 02:56:01;;;;;;;;;;;;;;;17.67;69.92;100060.09;1086027;54;19947;-80
2022/09/01 02:57:02;;;;;;;;;;;;;;;17.68;70.10;100057.22;1085697;54;19950;-78
2022/09/01 02:58:09;;;;;;;;;;;;;;;17.70;70.15;100057.88;1086900;39;20329;-77
2022/09/01 02:59:14;;;;;;;;;;;;;;;17.69;70.01;100058.91;1085698;54;19950;-78
2022/09/01 03:00:27;;;;;;;;;;;;;;;17.65;70.40;100057.59;1085654;47;19953;-79
2022/09/01 03:01:29;;;;;;;;;;;;;;;17.68;69.95;100056.38;1085455;54;19951;-78
2022/09/01 03:02:34;;;;;;;;;;;;;;;17.68;69.97;100056.38;1085815;54;19958;-78
2022/09/01 03:03:36;;;;;;;;;;;;;;;17.68;69.78;100057.22;1085722;54;19970;-79
2022/09/01 03:04:40;;;;;;;;;;;;;;;17.69;69.74;100055.34;1085703;54;19953;-78
2022/09/01 03:05:41;;;;;;;;;;;;;;;17.65;70.24;100051.38;1085534;54;19970;-78
2022/09/01 03:06:45;;;;;;;;;;;;;;;17.63;70.29;100059.66;1085994;54;19953;-79
2022/09/01 03:07:46;;;;;;;;;;;;;;;17.60;70.49;100058.19;1085411;54;19985;-77
2022/09/01 03:08:50;;;;;;;;;;;;;;;17.51;71.24;100059.31;1085698;54;19946;-78
2022/09/01 03:09:51;;;;;;;;;;;;;;;17.46;71.15;100054.50;1086038;54;19947;-79
2022/09/01 03:10:58;;;;;;;;;;;;;;;17.50;70.90;100060.34;1086294;54;19956;-77
2022/09/01 03:11:59;;;;;;;;;;;;;;;17.49;70.85;100058.66;1086086;54;19946;-78
2022/09/01 03:13:05;;;;;;;;;;;;;;;17.52;70.44;100058.31;1086219;54;20611;-78
2022/09/01 03:14:06;;;;;;;;;;;;;;;17.42;71.29;100055.06;1086113;54;20470;-81
2022/09/01 03:15:13;;;;;;;;;;;;;;;17.39;71.33;100058.13;1086347;54;19994;-78
2022/09/01 03:16:14;;;;;;;;;;;;;;;17.40;71.28;100049.00;1085763;54;19961;-80
2022/09/01 03:17:20;;;;;;;;;;;;;;;17.36;71.57;100053.94;1086867;39;20397;-80
2022/09/01 03:18:21;;;;;;;;;;;;;;;17.40;71.18;100051.69;1085890;54;19946;-78
2022/09/01 03:19:25;;;;;;;;;;;;;;;17.44;71.02;100050.31;1085890;54;19954;-79
2022/09/01 03:20:26;;;;;;;;;;;;;;;17.43;71.00;100048.63;1085838;54;19953;-78
2022/09/01 03:21:31;;;;;;;;;;;;;;;17.41;71.28;100051.53;1086192;54;19946;-79
2022/09/01 03:22:32;;;;;;;;;;;;;;;17.40;71.08;100049.00;1086422;54;19957;-79
2022/09/01 03:23:36;;;;;;;;;;;;;;;17.41;71.01;100045.28;1086537;54;19946;-79
2022/09/01 03:24:39;;;;;;;;;;;;;;;17.44;70.91;100053.00;1085712;54;19953;-78
2022/09/01 03:25:44;;;;;;;;;;;;;;;17.45;70.75;100052.00;1085825;54;19958;-81
2022/09/01 03:26:48;;;;;;;;;;;;;;;17.44;70.81;100051.13;1086011;54;19954;-79
2022/09/01 03:27:50;;;;;;;;;;;;;;;17.42;71.38;100052.34;1086003;54;19953;-79
2022/09/01 03:28:54;;;;;;;;;;;;;;;17.45;70.52;100055.50;1086053;54;19954;-79
2022/09/01 03:29:55;;;;;;;;;;;;;;;17.45;70.84;100050.09;1085894;54;19950;-80
2022/09/01 03:31:01;;;;;;;;;;;;;;;17.48;70.59;100048.06;1086085;54;20523;-78
2022/09/01 03:32:03;;;;;;;;;;;;;;;17.49;70.62;100047.84;1085972;54;19946;-79
2022/09/01 03:33:06;;;;;;;;;;;;;;;17.52;70.21;100049.38;1085882;54;19947;-79
2022/09/01 03:34:09;;;;;;;;;;;;;;;17.52;70.53;100052.06;1086140;54;20527;-79
2022/09/01 03:35:14;;;;;;;;;;;;;;;17.52;70.27;100049.38;1085798;54;19958;-79
2022/09/01 03:36:18;;;;;;;;;;;;;;;17.52;70.57;100047.50;1086734;54;20500;-78
2022/09/01 03:37:22;;;;;;;;;;;;;;;17.53;70.38;100051.88;1086528;54;19958;-79
2022/09/01 03:38:23;;;;;;;;;;;;;;;17.52;70.48;100050.19;1085938;54;19947;-79
2022/09/01 03:39:27;;;;;;;;;;;;;;;17.46;71.12;100049.09;1085951;54;19950;-79
2022/09/01 03:40:31;;;;;;;;;;;;;;;17.48;70.58;100046.19;1086568;54;19950;-79
2022/09/01 03:41:36;;;;;;;;;;;;;;;17.47;70.64;100044.53;1086212;54;19946;-79
2022/09/01 03:42:38;;;;;;;;;;;;;;;17.44;71.11;100045.72;1086001;54;19970;-80
2022/09/01 03:43:42;;;;;;;;;;;;;;;17.43;70.79;100059.44;1086034;54;19946;-80
2022/09/01 03:44:44;;;;;;;;;;;;;;;17.43;71.03;100054.84;1085931;54;19938;-78
2022/09/01 03:45:47;;;;;;;;;;;;;;;17.37;71.37;100044.81;1086192;54;19958;-79
2022/09/01 03:46:51;;;;;;;;;;;;;;;17.40;70.89;100047.16;1086235;39;20361;-79
2022/09/01 03:47:55;;;;;;;;;;;;;;;17.41;70.89;100056.09;1086115;54;19962;-78
2022/09/01 03:48:59;;;;;;;;;;;;;;;17.42;71.01;100052.34;1086118;54;19958;-79
2022/09/01 03:50:03;;;;;;;;;;;;;;;17.42;71.03;100047.81;1086052;54;19985;-79
2022/09/01 03:51:05;;;;;;;;;;;;;;;17.47;70.51;100058.03;1086040;46;19946;-78
2022/09/01 03:52:09;;;;;;;;;;;;;;;17.49;70.58;100058.66;1085933;54;19946;-80
2022/09/01 03:53:10;;;;;;;;;;;;;;;17.52;70.33;100052.06;1085765;54;20093;-80
2022/09/01 03:54:14;;;;;;;;;;;;;;;17.54;70.28;100052.69;1086288;54;20504;-81
2022/09/01 03:55:22;;;;;;;;;;;;;;;17.55;70.35;100055.22;1085627;54;19950;-80
2022/09/01 03:56:26;;;;;;;;;;;;;;;17.55;70.33;100049.81;1086000;54;19950;-78
2022/09/01 03:57:28;;;;;;;;;;;;;;;17.56;70.29;100054.19;1085770;54;20844;-80
2022/09/01 03:58:32;;;;;;;;;;;;;;;17.54;70.22;100053.53;1087225;39;20373;-81
2022/09/01 03:59:33;;;;;;;;;;;;;;;17.55;70.25;100051.66;1085699;54;19970;-79
2022/09/01 04:00:41;;;;;;;;;;;;;;;17.55;70.40;100055.22;1085774;54;19954;-78
2022/09/01 04:01:42;;;;;;;;;;;;;;;17.55;70.42;100052.53;1085748;54;19953;-77
2022/09/01 04:02:50;;;;;;;;;;;;;;;17.49;71.08;100052.44;1085924;54;20417;-81
2022/09/01 04:03:53;;;;;;;;;;;;;;;17.46;71.05;100048.25;1085814;54;19958;-78
2022/09/01 04:04:57;;;;;;;;;;;;;;;17.42;71.23;100055.91;1085615;54;20471;-79
2022/09/01 04:05:59;;;;;;;;;;;;;;;17.37;71.42;100050.22;1085603;47;19947;-79
2022/09/01 04:07:04;;;;;;;;;;;;;;;17.33;71.90;100045.38;1086198;54;19946;-78
2022/09/01 04:08:06;;;;;;;;;;;;;;;17.33;71.38;100053.50;1085879;47;19950;-79
2022/09/01 04:09:10;;;;;;;;;;;;;;;17.27;72.20;100046.97;1085654;54;19986;-78
2022/09/01 04:10:11;;;;;;;;;;;;;;;17.26;72.25;100053.41;1085620;54;19947;-79
2022/09/01 04:11:17;;;;;;;;;;;;;;;17.26;72.02;100048.84;1086270;39;20401;-80
2022/09/01 04:12:18;;;;;;;;;;;;;;;17.29;71.71;100044.94;1085846;54;20507;-80
2022/09/01 04:13:23;;;;;;;;;;;;;;;17.28;71.85;100052.22;1086204;54;19938;-77
2022/09/01 04:14:26;;;;;;;;;;;;;;;17.31;71.91;100046.41;1086090;54;19942;-81
2022/09/01 04:15:31;;;;;;;;;;;;;;;17.35;71.50;100048.75;1086546;54;19946;-77
2022/09/01 04:18:08;;;;;;;;;;;;;;;17.31;71.97;100045.59;1086617;54;20566;-79
2022/09/01 04:19:18;;;;;;;;;;;;;;;17.31;71.54;100043.72;1086328;54;19970;-80
2022/09/01 04:20:20;;;;;;;;;;;;;;;17.37;71.24;100046.69;1086495;54;19947;-79
2022/09/01 04:21:25;;;;;;;;;;;;;;;17.42;71.37;100053.22;1086370;54;20456;-78
2022/09/01 04:22:30;;;;;;;;;;;;;;;17.45;70.88;100049.28;1086083;54;19946;-80
2022/09/01 04:23:32;;;;;;;;;;;;;;;17.47;70.90;100049.94;1086298;54;19954;-78
2022/09/01 04:24:37;;;;;;;;;;;;;;;17.45;70.94;100052.81;1085909;54;20042;-80
2022/09/01 04:25:40;;;;;;;;;;;;;;;17.38;71.42;100053.78;1085764;54;20061;-81
2022/09/01 04:26:44;;;;;;;;;;;;;;;17.29;72.04;100048.44;1085862;54;19950;-79
2022/09/01 04:27:46;;;;;;;;;;;;;;;17.23;72.09;100054.63;1086074;54;19949;-79
2022/09/01 04:28:52;;;;;;;;;;;;;;;17.23;72.12;100051.91;1085551;54;19947;-80
2022/09/01 04:29:55;;;;;;;;;;;;;;;17.21;72.49;100056.66;1086459;54;19939;-80
2022/09/01 04:31:04;;;;;;;;;;;;;;;17.19;72.79;100066.00;1086043;54;19985;-78
2022/09/01 04:32:06;;;;;;;;;;;;;;;17.20;72.63;100065.78;1086030;54;19955;-79
2022/09/01 04:33:15;;;;;;;;;;;;;;;17.15;72.68;100062.84;1085727;54;19946;-79
2022/09/01 04:34:16;;;;;;;;;;;;;;;17.09;73.08;100058.19;1087317;39;20424;-78
2022/09/01 04:35:26;;;;;;;;;;;;;;;17.07;73.34;100058.34;1085839;46;19973;-78
2022/09/01 04:36:31;;;;;;;;;;;;;;;16.98;73.39;100063.03;1086012;54;19947;-80
2022/09/01 04:37:36;;;;;;;;;;;;;;;16.98;73.36;100064.88;1086169;54;20014;-80
2022/09/01 04:38:37;;;;;;;;;;;;;;;17.01;73.47;100061.81;1086230;54;19958;-77
2022/09/01 04:39:47;;;;;;;;;;;;;;;16.97;73.61;100060.50;1088664;39;20372;-80
2022/09/01 04:40:48;;;;;;;;;;;;;;;16.93;73.52;100062.75;1086025;54;19947;-78
2022/09/01 04:41:53;;;;;;;;;;;;;;;16.90;74.07;100059.53;1086629;54;19957;-78
2022/09/01 04:42:56;;;;;;;;;;;;;;;16.93;73.95;100064.59;1086961;54;19943;-77
2022/09/01 04:43:58;;;;;;;;;;;;;;;16.97;73.59;100058.66;1086735;54;19991;-78
2022/09/01 04:45:02;;;;;;;;;;;;;;;16.94;73.88;100059.00;1086056;54;19954;-80
2022/09/01 04:46:03;;;;;;;;;;;;;;;16.87;74.18;100055.34;1086248;54;19958;-79
2022/09/01 04:47:10;;;;;;;;;;;;;;;16.87;74.17;100051.81;1087007;46;19961;-79
2022/09/01 04:48:14;;;;;;;;;;;;;;;16.88;74.18;100061.59;1086878;54;19974;-78
2022/09/01 04:49:20;;;;;;;;;;;;;;;16.91;73.84;100059.34;1085598;54;19939;-79
2022/09/01 04:50:22;;;;;;;;;;;;;;;16.90;74.16;100054.16;1086168;54;19950;-78
2022/09/01 04:51:27;;;;;;;;;;;;;;;16.95;73.83;100066.09;1086224;54;19951;-78
2022/09/01 04:52:30;;;;;;;;;;;;;;;16.97;73.78;100058.66;1086760;54;20465;-80
2022/09/01 04:53:34;;;;;;;;;;;;;;;17.04;73.18;100055.19;1086283;39;20408;-78
2022/09/01 04:54:37;;;;;;;;;;;;;;;17.03;73.10;100054.38;1086590;54;20653;-80
2022/09/01 04:55:42;;;;;;;;;;;;;;;16.95;73.73;100052.59;1085642;54;19954;-78
2022/09/01 04:56:44;;;;;;;;;;;;;;;16.93;73.92;100049.25;1087301;31;20359;-79
2022/09/01 04:57:49;;;;;;;;;;;;;;;16.88;74.07;100051.63;1085554;54;19970;-77
2022/09/01 04:58:52;;;;;;;;;;;;;;;16.85;74.02;100054.69;1085941;54;19953;-76
2022/09/01 04:59:57;;;;;;;;;;;;;;;16.79;74.58;100056.28;1085960;54;19950;-77
2022/09/01 05:00:59;;;;;;;;;;;;;;;16.77;74.30;100062.88;1085083;54;19976;-79
2022/09/01 05:02:06;;;;;;;;;;;;;;;16.77;74.72;100062.88;1086114;54;20018;-80
2022/09/01 05:03:09;;;;;;;;;;;;;;;16.78;74.40;100056.47;1086063;54;19981;-80
2022/09/01 05:04:16;;;;;;;;;;;;;;;16.80;74.52;100057.97;1085977;54;19953;-80
2022/09/01 05:05:18;;;;;;;;;;;;;;;16.83;73.97;100062.13;1085911;54;19970;-78
2022/09/01 05:06:22;;;;;;;;;;;;;;;16.83;74.33;100071.09;1085867;54;19950;-81
2022/09/01 05:07:23;;;;;;;;;;;;;;;16.84;73.90;100066.53;1086201;54;19942;-80
2022/09/01 05:08:27;;;;;;;;;;;;;;;16.92;73.71;100073.69;1086135;54;20001;-79
2022/09/01 05:09:29;;;;;;;;;;;;;;;16.96;73.13;100067.78;1085714;54;19958;-79
2022/09/01 05:10:35;;;;;;;;;;;;;;;16.94;73.23;100072.50;1086412;54;19953;-79
2022/09/01 05:11:37;;;;;;;;;;;;;;;16.89;73.42;100080.31;1086010;54;19950;-79
2022/09/01 05:12:44;;;;;;;;;;;;;;;16.87;73.44;100082.34;1086151;54;19993;-80
2022/09/01 05:13:46;;;;;;;;;;;;;;;16.79;73.72;100080.56;1086664;54;19943;-79
2022/09/01 05:14:51;;;;;;;;;;;;;;;16.76;74.10;100082.81;1086201;54;19953;-80
2022/09/01 05:16:00;;;;;;;;;;;;;;;16.74;73.87;100088.41;1086355;54;19981;-79
2022/09/01 05:17:09;;;;;;;;;;;;;;;16.73;73.96;100086.72;1086493;54;20473;-79
2022/09/01 05:18:11;;;;;;;;;;;;;;;16.70;74.15;100089.78;1085528;54;19973;-79
2022/09/01 05:19:19;;;;;;;;;;;;;;;16.74;73.85;100087.53;1086068;54;20006;-78
2022/09/01 05:20:20;;;;;;;;;;;;;;;16.72;73.64;100095.84;1086616;54;19954;-78
2022/09/01 05:21:27;;;;;;;;;;;;;;;16.72;73.71;100095.00;1086737;54;19954;-79
2022/09/01 05:22:30;;;;;;;;;;;;;;;16.74;73.83;100092.94;1086424;54;19962;-78
2022/09/01 05:23:35;;;;;;;;;;;;;;;16.76;73.74;100088.22;1086560;54;19953;-78
2022/09/01 05:24:36;;;;;;;;;;;;;;;16.73;73.71;100085.88;1085771;54;20843;-78
2022/09/01 05:25:42;;;;;;;;;;;;;;;16.63;74.04;100095.06;1086922;46;19947;-78
2022/09/01 05:26:47;;;;;;;;;;;;;;;16.65;73.99;100101.13;1086374;54;19946;-79
2022/09/01 05:27:50;;;;;;;;;;;;;;;16.66;73.81;100097.41;1086666;54;19972;-79
2022/09/01 05:28:55;;;;;;;;;;;;;;;16.68;73.63;100100.78;1086232;54;19946;-80
2022/09/01 05:29:59;;;;;;;;;;;;;;;16.71;73.53;100096.03;1085749;54;20070;-78
2022/09/01 05:31:03;;;;;;;;;;;;;;;16.69;73.72;100102.44;1086348;54;19947;-79
2022/09/01 05:32:08;;;;;;;;;;;;;;;16.65;73.95;100103.00;1086467;54;19950;-77